LIMC Airport Information

Runway Information
Runway 17R Length 12861 ft width 197 ft Elevation 764 ft Threshold N/A Heading 170
Runway 35L Length 12861 ft Width 197 ft Elevation 696 ft Threshold 1329 ft Heading 350
Runway 17L Length 12861 ft width 197 ft Elevation 745 ft Threshold 3094 ft Heading 170
Runway 35R Length 12861 ft Width 197 ft Elevation 691 ft Threshold N/A Heading 350
Airport Frequencies
Type APP Name MILANO APP Frequency 132.7 MHZ
Type ATIS Name ATIS Frequency 120.025 MHZ
Type CLD Name CLNC DEL Frequency 120.9 MHZ
Type DEP Name MILANO DEP Frequency 126.75 MHZ
Type GND Name GND Frequency 121.9 MHZ
Type TWR Name TWR Frequency 119 MHZ
Airport Navaids
Type VOR-DME Name Malpensa Frequency 111200 KHZ
Type NDB Name Malpensa Frequency 364 KHZ
Airport Weather Information & NOTAM
ADDS - METARS form results

(2302 UTC 29 January 2023)
Data provider http://aviationweather.gov/metar/data/
 
METAR text: LIMC 292250Z 02004KT CAVOK M02/M04 Q1023 NOSIG
Conditions at: LIMC (MILANO/MALPENSA , IT) observed 2250 UTC 29 January 2023
Temperature: -2.0°C (28°F)
Dewpoint: -4.0°C (25°F) [RH = 86%]
Pressure (altimeter): 30.21 inches Hg (1023.0 mb)
Winds: from the NNE (20 degrees) at 5 MPH (4 knots; 2.1 m/s)
Visibility: 6 or more miles (10+ km)
Ceiling: ceiling and visibility are OK
Clouds: unknown
Weather: no significant weather observed at this time

METAR text: LIMC 292220Z VRB01KT CAVOK M01/M03 Q1023 NOSIG
Conditions at: LIMC (MILANO/MALPENSA , IT) observed 2220 UTC 29 January 2023
Temperature: -1.0°C (30°F)
Dewpoint: -3.0°C (27°F) [RH = 86%]
Pressure (altimeter): 30.21 inches Hg (1023.0 mb)
Winds: variable direction winds at 1 MPH (1 knots; 0.5 m/s)
Visibility: 6 or more miles (10+ km)
Ceiling: ceiling and visibility are OK
Clouds: unknown
Weather: no significant weather observed at this time

Forecast for: LIMC (MILANO/MALPENSA , IT)
Text: TAF LIMC 291700Z 2918/3024 VRB05KT CAVOK
Forecast period: 1800 UTC 29 January 2023 to 0000 UTC 31 January 2023
Forecast type: FROM: standard forecast or significant change
Winds: variable direction winds at 6 MPH (5 knots; 2.6 m/s)
Visibility: 6 or more miles (10+ km)
Ceiling: unknown
Clouds: missing
Weather: NSW  (no significant weather)